Time;durP1;ratioP1;P1;durP2;ratioP2;P2;SDS_P1;SDS_P2;PMS_P1;PMS_P2;Temp;Humidity;BMP_temperature;BMP_pressure;BME280_temperature;BME280_humidity;BME280_pressure;Samples;Min_cycle;Max_cycle;Signal;HPM_P1;HPM_P2
2023/06/20 00:00:06;;;;;;;6.67;6.13;;;29.70;48.40;;;;;;5016517;28;20954;-49
2023/06/20 00:02:32;;;;;;;6.20;5.80;;;29.70;48.30;;;;;;5019075;28;20483;-46
2023/06/20 00:05:00;;;;;;;6.50;6.00;;;29.70;48.50;;;;;;5027262;28;20475;-47
2023/06/20 00:07:25;;;;;;;6.57;6.07;;;29.70;48.80;;;;;;5030423;28;20186;-49
2023/06/20 00:09:51;;;;;;;6.20;5.80;;;29.60;48.70;;;;;;5027821;28;20459;-48
2023/06/20 00:12:16;;;;;;;6.47;6.00;;;29.60;48.70;;;;;;5029607;28;20252;-46
2023/06/20 00:14:42;;;;;;;5.93;5.50;;;29.60;49.00;;;;;;5025076;28;20617;-47
2023/06/20 00:17:08;;;;;;;6.53;6.03;;;29.60;49.10;;;;;;5028234;28;20185;-49
2023/06/20 00:19:33;;;;;;;7.40;6.70;;;29.50;49.10;;;;;;5011380;28;20255;-46
2023/06/20 00:22:02;;;;;;;6.43;6.00;;;29.50;48.70;;;;;;5019501;28;20644;-46
2023/06/20 00:24:28;;;;;;;6.77;6.27;;;29.50;48.90;;;;;;5021545;28;20227;-50
2023/06/20 00:26:56;;;;;;;6.30;5.80;;;29.60;48.90;;;;;;5018005;28;20443;-46
2023/06/20 00:29:21;;;;;;;6.33;5.73;;;29.60;48.90;;;;;;5015650;28;20464;-46
2023/06/20 00:31:47;;;;;;;6.87;6.33;;;29.30;50.00;;;;;;5014797;28;20571;-48
2023/06/20 00:34:12;;;;;;;6.70;6.20;;;29.10;50.40;;;;;;5015090;28;20610;-49
2023/06/20 00:36:38;;;;;;;7.73;7.07;;;28.90;50.40;;;;;;5019854;28;20399;-49
2023/06/20 00:39:04;;;;;;;6.23;5.73;;;29.00;49.90;;;;;;5016801;28;20193;-50
2023/06/20 00:41:31;;;;;;;6.93;6.33;;;29.00;50.10;;;;;;5017178;28;20315;-48
2023/06/20 00:44:02;;;;;;;6.60;6.10;;;29.10;49.80;;;;;;5015164;28;20201;-50
2023/06/20 00:46:31;;;;;;;6.30;5.70;;;29.10;49.50;;;;;;5014464;28;20810;-53
2023/06/20 00:49:03;;;;;;;7.30;6.70;;;29.20;49.00;;;;;;5024134;28;20443;-47
2023/06/20 00:51:29;;;;;;;10.97;7.80;;;28.80;50.80;;;;;;5017600;28;20907;-52
2023/06/20 00:53:56;;;;;;;131.30;16.00;;;28.20;53.30;;;;;;5019780;28;20615;-50
2023/06/20 00:56:24;;;;;;;13.47;7.50;;;27.30;51.90;;;;;;5018558;28;20442;-53
2023/06/20 00:58:50;;;;;;;10.33;7.67;;;26.20;55.50;;;;;;5016304;28;20448;-50
2023/06/20 01:01:17;;;;;;;7.37;6.87;;;25.70;58.80;;;;;;5018838;28;20456;-54
2023/06/20 01:03:44;;;;;;;7.30;6.70;;;25.60;59.80;;;;;;5015663;28;20691;-50
2023/06/20 01:06:36;;;;;;;7.17;6.47;;;25.50;61.20;;;;;;5016398;28;20530;-53
2023/06/20 01:09:34;;;;;;;7.50;6.87;;;25.40;62.30;;;;;;5020844;28;20457;-50
2023/06/20 01:12:16;;;;;;;7.70;7.10;;;25.30;63.20;;;;;;5018995;28;20510;-51
2023/06/20 01:14:57;;;;;;;7.57;6.90;;;25.50;62.90;;;;;;5022246;28;20459;-48
2023/06/20 01:17:30;;;;;;;7.47;6.33;;;25.30;63.90;;;;;;5016348;28;20454;-48
2023/06/20 01:20:21;;;;;;;7.50;6.77;;;24.80;64.60;;;;;;5015258;28;20538;-48
2023/06/20 01:23:13;;;;;;;6.73;6.13;;;24.70;67.10;;;;;;5020525;28;20456;-48
2023/06/20 01:25:53;;;;;;;8.53;6.93;;;24.80;67.90;;;;;;5018878;28;20460;-48
2023/06/20 01:28:31;;;;;;;7.13;6.53;;;24.60;68.20;;;;;;5027720;28;20509;-49
2023/06/20 01:31:32;;;;;;;9.10;6.33;;;24.60;69.20;;;;;;5024173;28;20483;-52
2023/06/20 01:34:07;;;;;;;7.20;6.60;;;24.50;73.00;;;;;;4994262;28;20491;-47
2023/06/20 01:36:37;;;;;;;8.47;6.63;;;24.80;71.30;;;;;;5025087;28;20431;-47
2023/06/20 01:39:09;;;;;;;7.13;6.53;;;24.90;70.00;;;;;;5027868;28;20826;-49
2023/06/20 01:41:37;;;;;;;7.27;6.70;;;24.90;69.00;;;;;;5013825;28;20531;-50
2023/06/20 01:44:06;;;;;;;7.47;6.67;;;25.00;68.70;;;;;;5015992;28;20499;-49
2023/06/20 01:46:35;;;;;;;7.57;7.07;;;25.00;69.30;;;;;;5016126;28;20478;-52
2023/06/20 01:49:02;;;;;;;6.43;5.83;;;25.10;69.60;;;;;;5020151;28;20862;-49
2023/06/20 01:51:29;;;;;;;7.47;6.77;;;25.20;68.20;;;;;;5018629;28;20523;-47
2023/06/20 01:53:57;;;;;;;7.60;6.90;;;25.20;68.00;;;;;;5021424;28;20468;-49
2023/06/20 01:56:24;;;;;;;8.70;6.63;;;25.20;68.00;;;;;;5018155;28;20473;-47
2023/06/20 01:58:51;;;;;;;9.90;7.90;;;25.30;68.20;;;;;;5019257;28;20444;-49
2023/06/20 02:01:18;;;;;;;8.40;6.73;;;25.20;68.90;;;;;;5020801;28;20451;-47
2023/06/20 02:03:46;;;;;;;7.13;6.60;;;25.10;69.20;;;;;;5024883;28;20462;-47
2023/06/20 02:06:14;;;;;;;8.07;7.07;;;24.90;70.80;;;;;;5027267;28;20450;-48
2023/06/20 02:08:40;;;;;;;6.73;6.23;;;24.90;71.80;;;;;;5021734;28;20463;-48
2023/06/20 02:11:08;;;;;;;6.40;6.00;;;24.80;71.90;;;;;;5015891;28;20490;-52
2023/06/20 02:13:35;;;;;;;6.97;6.33;;;24.80;72.50;;;;;;5019397;28;20464;-50
2023/06/20 02:16:04;;;;;;;6.87;6.37;;;24.80;70.80;;;;;;5019878;28;20451;-51
2023/06/20 02:18:31;;;;;;;7.03;6.33;;;25.10;69.60;;;;;;5022908;28;20436;-49
2023/06/20 02:21:02;;;;;;;9.60;6.60;;;25.40;69.30;;;;;;5008786;28;22235;-53
2023/06/20 02:23:29;;;;;;;7.03;6.43;;;25.50;68.40;;;;;;5028720;28;20472;-49
2023/06/20 02:26:08;;;;;;;7.00;6.40;;;25.40;68.10;;;;;;5017324;28;20967;-49
2023/06/20 02:28:38;;;;;;;6.00;5.50;;;25.60;68.30;;;;;;5016005;28;20439;-48
2023/06/20 02:31:06;;;;;;;6.20;5.60;;;25.60;66.90;;;;;;5023040;28;20506;-52
2023/06/20 02:33:32;;;;;;;6.30;5.80;;;25.40;66.10;;;;;;5017594;28;20579;-52
2023/06/20 02:36:01;;;;;;;6.07;5.67;;;24.90;66.90;;;;;;5018641;28;22215;-49
2023/06/20 02:38:27;;;;;;;5.23;4.73;;;24.90;68.10;;;;;;5018930;28;20441;-47
2023/06/20 02:40:53;;;;;;;5.90;5.50;;;25.00;68.30;;;;;;5019981;28;20444;-51
2023/06/20 02:43:18;;;;;;;6.67;5.57;;;25.00;67.40;;;;;;5018238;28;20189;-50
2023/06/20 02:45:50;;;;;;;5.50;5.00;;;25.20;67.40;;;;;;5020619;28;20194;-50
2023/06/20 02:48:42;;;;;;;5.67;5.17;;;25.40;67.10;;;;;;5028876;28;20194;-48
2023/06/20 02:51:23;;;;;;;6.13;5.40;;;25.40;66.20;;;;;;5016862;28;20869;-54
2023/06/20 02:54:03;;;;;;;5.70;5.07;;;25.40;66.00;;;;;;5015649;28;22487;-47
2023/06/20 02:56:33;;;;;;;5.87;5.37;;;25.50;65.40;;;;;;5022481;28;20812;-47
2023/06/20 02:59:01;;;;;;;6.30;5.70;;;25.20;66.10;;;;;;5030261;28;20834;-48
2023/06/20 03:01:30;;;;;;;5.37;4.87;;;25.00;67.50;;;;;;5027103;28;20452;-48
2023/06/20 03:04:02;;;;;;;6.00;5.50;;;24.70;68.20;;;;;;5019524;28;20805;-47
2023/06/20 03:06:28;;;;;;;5.50;5.00;;;24.40;68.70;;;;;;5019780;28;21014;-48
2023/06/20 03:08:57;;;;;;;6.90;6.20;;;24.30;70.40;;;;;;5025740;28;20455;-48
2023/06/20 03:11:23;;;;;;;5.67;5.17;;;24.50;70.70;;;;;;5020335;28;20582;-52
2023/06/20 03:13:49;;;;;;;7.93;6.80;;;24.60;70.80;;;;;;5022680;28;20633;-48
2023/06/20 03:16:14;;;;;;;7.10;6.50;;;24.60;70.60;;;;;;5027827;28;20268;-47
2023/06/20 03:18:40;;;;;;;7.70;7.00;;;24.60;70.90;;;;;;5018272;28;20269;-49
2023/06/20 03:21:06;;;;;;;7.10;6.50;;;24.70;70.70;;;;;;5025853;28;20280;-47
2023/06/20 03:23:32;;;;;;;6.53;6.03;;;24.60;71.30;;;;;;5022432;28;20217;-50
2023/06/20 03:25:58;;;;;;;6.33;5.73;;;24.30;71.50;;;;;;5025940;28;20332;-48
2023/06/20 03:28:24;;;;;;;6.13;5.63;;;24.10;72.50;;;;;;5026990;28;20527;-48
2023/06/20 03:30:50;;;;;;;6.77;6.07;;;24.00;74.30;;;;;;5023656;28;21147;-50
2023/06/20 03:33:16;;;;;;;7.27;6.57;;;24.00;74.30;;;;;;5018831;28;20803;-48
2023/06/20 03:35:41;;;;;;;6.80;6.20;;;24.00;73.80;;;;;;5010772;28;20453;-47
2023/06/20 03:38:07;;;;;;;7.03;6.37;;;24.00;73.60;;;;;;5018597;28;20202;-53
2023/06/20 03:40:32;;;;;;;7.13;5.50;;;24.00;73.60;;;;;;5022755;28;20216;-48
2023/06/20 03:42:59;;;;;;;6.90;6.23;;;24.10;73.90;;;;;;5014366;28;20189;-48
2023/06/20 03:45:24;;;;;;;6.90;6.20;;;24.10;73.70;;;;;;5014725;28;20444;-48
2023/06/20 03:47:50;;;;;;;7.67;6.97;;;24.10;74.10;;;;;;5017051;28;20314;-48
2023/06/20 03:50:15;;;;;;;7.30;6.70;;;24.10;74.40;;;;;;5021167;28;20221;-47
2023/06/20 03:52:41;;;;;;;8.17;7.57;;;24.00;74.90;;;;;;5021097;28;20743;-47
2023/06/20 03:55:07;;;;;;;6.17;5.60;;;24.00;75.40;;;;;;5024264;28;20254;-47
2023/06/20 03:57:33;;;;;;;5.93;5.23;;;23.90;72.50;;;;;;5020954;28;20201;-47
2023/06/20 03:59:58;;;;;;;6.00;5.40;;;24.00;67.50;;;;;;5025385;28;20425;-49
2023/06/20 04:02:24;;;;;;;5.97;5.20;;;24.40;66.70;;;;;;5019924;28;20198;-48
2023/06/20 04:04:49;;;;;;;5.53;4.40;;;24.80;63.40;;;;;;5025024;28;20945;-47
2023/06/20 04:07:18;;;;;;;5.40;5.00;;;25.20;61.60;;;;;;5019838;28;20198;-49
2023/06/20 04:09:45;;;;;;;5.80;5.30;;;25.50;61.00;;;;;;5016200;28;20205;-48
2023/06/20 04:12:11;;;;;;;5.87;5.37;;;25.80;60.20;;;;;;5025676;28;20894;-51
2023/06/20 04:14:36;;;;;;;6.20;5.60;;;26.00;59.60;;;;;;5025229;28;20444;-49
2023/06/20 04:17:02;;;;;;;5.90;5.50;;;26.20;60.70;;;;;;5014596;28;20200;-51
2023/06/20 04:19:28;;;;;;;7.30;6.70;;;26.30;60.20;;;;;;5013145;28;20352;-49
2023/06/20 04:21:53;;;;;;;6.00;5.37;;;26.20;61.70;;;;;;5018082;28;20235;-47
2023/06/20 04:24:19;;;;;;;7.50;5.30;;;26.10;61.60;;;;;;5018099;28;20189;-49
2023/06/20 04:26:44;;;;;;;6.77;6.17;;;26.30;61.40;;;;;;5013161;28;20201;-47
2023/06/20 04:29:10;;;;;;;6.40;5.80;;;26.40;59.90;;;;;;5012580;28;20205;-47
2023/06/20 04:31:35;;;;;;;7.97;7.10;;;26.50;59.80;;;;;;5010447;28;20240;-48
2023/06/20 04:34:01;;;;;;;5.80;5.30;;;26.60;60.10;;;;;;5018455;28;20209;-48
2023/06/20 04:36:28;;;;;;;6.07;5.57;;;26.70;59.40;;;;;;5019248;28;20193;-49
2023/06/20 04:38:54;;;;;;;6.87;6.17;;;26.80;59.30;;;;;;5017722;28;20230;-53
2023/06/20 04:41:20;;;;;;;6.83;6.30;;;26.90;59.00;;;;;;5012706;28;20472;-47
2023/06/20 04:43:45;;;;;;;7.57;5.70;;;27.00;58.30;;;;;;5017044;28;20200;-53
2023/06/20 04:46:15;;;;;;;6.87;6.30;;;27.00;58.90;;;;;;5016225;28;20197;-50
2023/06/20 04:48:41;;;;;;;8.07;6.73;;;27.20;58.20;;;;;;5016616;28;20177;-47
2023/06/20 04:51:10;;;;;;;6.80;5.73;;;27.00;58.70;;;;;;5024119;28;20538;-49
2023/06/20 04:53:36;;;;;;;6.43;5.83;;;27.10;58.30;;;;;;5026833;28;20471;-53
2023/06/20 04:56:02;;;;;;;6.00;5.20;;;27.20;57.80;;;;;;5023358;28;20952;-49
2023/06/20 04:58:28;;;;;;;5.73;5.33;;;27.40;57.40;;;;;;5018272;28;20527;-49
2023/06/20 05:00:57;;;;;;;6.00;5.50;;;27.50;56.90;;;;;;5011107;28;20540;-48
2023/06/20 05:03:24;;;;;;;7.60;5.83;;;27.60;56.70;;;;;;5014879;28;20203;-49
2023/06/20 05:05:50;;;;;;;5.30;4.80;;;27.70;57.10;;;;;;5018907;28;20499;-47
2023/06/20 05:08:15;;;;;;;4.23;3.90;;;27.60;57.10;;;;;;5020128;28;20447;-48
2023/06/20 05:10:41;;;;;;;7.80;5.40;;;27.20;55.70;;;;;;5020486;28;21015;-48
2023/06/20 05:13:06;;;;;;;5.20;4.13;;;27.00;57.30;;;;;;5021334;28;20233;-49
2023/06/20 05:15:32;;;;;;;3.40;3.17;;;27.10;57.40;;;;;;5012689;28;20661;-48
2023/06/20 05:17:57;;;;;;;4.80;4.40;;;27.00;56.60;;;;;;5027559;28;20253;-49
2023/06/20 05:20:23;;;;;;;4.10;3.80;;;27.00;57.80;;;;;;5022247;28;20212;-47
2023/06/20 05:22:49;;;;;;;3.40;3.10;;;27.00;57.80;;;;;;5021534;28;20201;-48
2023/06/20 05:25:15;;;;;;;4.43;3.43;;;27.10;56.40;;;;;;5024298;28;20570;-47
2023/06/20 05:27:40;;;;;;;3.47;3.17;;;27.00;56.60;;;;;;5023115;28;20185;-50
2023/06/20 05:30:08;;;;;;;3.53;2.70;;;27.00;56.30;;;;;;5023407;28;20467;-48
2023/06/20 05:32:34;;;;;;;3.80;3.20;;;26.60;55.20;;;;;;5015959;28;20204;-52
2023/06/20 05:35:00;;;;;;;4.93;2.37;;;26.40;56.00;;;;;;5020028;28;20448;-50
2023/06/20 05:37:28;;;;;;;3.93;3.40;;;26.40;56.40;;;;;;5031314;28;20259;-51
2023/06/20 05:39:53;;;;;;;3.63;3.13;;;26.20;56.90;;;;;;5026779;28;21109;-47
2023/06/20 05:42:19;;;;;;;3.17;2.90;;;26.30;56.80;;;;;;5021204;28;20438;-48
2023/06/20 05:44:44;;;;;;;3.60;3.30;;;26.30;57.10;;;;;;5024886;28;20217;-52
2023/06/20 05:47:17;;;;;;;4.27;3.20;;;26.50;56.80;;;;;;5022996;28;20196;-52
2023/06/20 05:49:45;;;;;;;3.10;2.80;;;26.70;56.20;;;;;;5023674;28;20193;-51
2023/06/20 05:52:11;;;;;;;6.07;3.57;;;26.80;56.40;;;;;;5019418;28;20874;-51
2023/06/20 05:54:37;;;;;;;40.13;9.60;;;26.80;56.30;;;;;;5023386;28;20541;-53
2023/06/20 05:57:05;;;;;;;9.47;3.80;;;26.80;56.60;;;;;;5019310;28;20279;-51
2023/06/20 05:59:31;;;;;;;20.33;5.70;;;26.80;56.60;;;;;;5014772;28;20555;-50
2023/06/20 06:01:56;;;;;;;11.07;4.83;;;26.80;57.10;;;;;;5022086;28;20483;-53
2023/06/20 06:04:22;;;;;;;33.83;9.33;;;26.80;56.10;;;;;;5018783;28;20208;-50
2023/06/20 06:06:48;;;;;;;10.30;4.30;;;26.70;56.90;;;;;;5020800;28;20655;-49
2023/06/20 06:09:15;;;;;;;32.07;8.07;;;26.70;56.90;;;;;;5029645;28;20203;-52
2023/06/20 06:11:40;;;;;;;31.20;9.63;;;26.80;57.00;;;;;;5028627;28;20308;-52
2023/06/20 06:14:06;;;;;;;18.20;5.70;;;26.90;56.70;;;;;;5018380;28;20595;-48
2023/06/20 06:16:32;;;;;;;7.80;4.17;;;26.90;56.80;;;;;;5031945;28;20189;-47
2023/06/20 06:18:59;;;;;;;16.83;6.47;;;27.00;57.00;;;;;;5030370;28;20204;-49
2023/06/20 06:21:25;;;;;;;55.47;11.60;;;27.00;57.00;;;;;;5017451;28;20205;-48
2023/06/20 06:23:50;;;;;;;52.07;10.50;;;27.10;56.60;;;;;;5021745;28;21012;-48
2023/06/20 06:26:16;;;;;;;27.80;10.37;;;27.10;56.90;;;;;;5028473;28;20652;-53
2023/06/20 06:28:42;;;;;;;150.53;26.60;;;27.20;56.90;;;;;;5026679;28;20193;-48
2023/06/20 06:31:11;;;;;;;59.90;12.47;;;27.30;56.80;;;;;;5027731;28;20708;-48
2023/06/20 06:33:37;;;;;;;36.17;9.37;;;27.40;56.40;;;;;;5016620;28;20190;-48
2023/06/20 06:36:03;;;;;;;45.97;11.27;;;27.60;56.10;;;;;;5015963;28;20439;-48
2023/06/20 06:38:29;;;;;;;54.87;11.93;;;27.70;56.30;;;;;;5019770;28;20444;-48
2023/06/20 06:40:56;;;;;;;6.90;4.80;;;27.70;55.00;;;;;;5027579;28;20954;-49
2023/06/20 06:43:22;;;;;;;54.47;15.90;;;27.70;55.20;;;;;;5029542;28;20209;-49
2023/06/20 06:45:48;;;;;;;62.50;19.13;;;27.80;55.60;;;;;;5024793;28;20453;-54
2023/06/20 06:48:13;;;;;;;43.83;13.93;;;27.90;55.10;;;;;;5018166;28;20276;-51
2023/06/20 06:50:39;;;;;;;41.63;12.50;;;28.00;54.60;;;;;;5015255;28;20221;-49
2023/06/20 06:53:05;;;;;;;17.90;6.33;;;28.10;54.40;;;;;;5024034;28;20189;-49
2023/06/20 06:55:30;;;;;;;6.13;4.00;;;28.20;54.20;;;;;;5021096;28;20185;-50
2023/06/20 06:57:57;;;;;;;6.40;4.63;;;28.40;53.80;;;;;;5030547;28;20221;-54
2023/06/20 07:00:23;;;;;;;22.80;7.10;;;28.60;53.60;;;;;;5013284;28;20198;-50
2023/06/20 07:02:48;;;;;;;7.47;5.13;;;28.70;52.90;;;;;;5024125;28;20455;-48
2023/06/20 07:05:14;;;;;;;5.47;4.97;;;28.80;53.20;;;;;;5019345;28;20653;-48
2023/06/20 07:07:40;;;;;;;15.17;6.70;;;28.90;52.70;;;;;;5021046;28;20208;-48
2023/06/20 07:10:06;;;;;;;37.47;10.03;;;29.00;52.10;;;;;;5018610;28;20673;-50
2023/06/20 07:12:31;;;;;;;26.20;7.60;;;29.10;51.60;;;;;;5024388;28;20232;-53
2023/06/20 07:14:57;;;;;;;12.90;5.80;;;28.90;51.70;;;;;;5021091;28;20443;-51
2023/06/20 07:17:24;;;;;;;22.43;8.63;;;28.70;52.00;;;;;;5028164;28;20300;-53
2023/06/20 07:19:50;;;;;;;20.20;7.17;;;29.00;52.40;;;;;;5018882;28;20206;-53
2023/06/20 07:22:16;;;;;;;12.63;5.30;;;29.10;50.90;;;;;;5027003;28;20432;-51
2023/06/20 07:24:41;;;;;;;37.07;6.47;;;29.20;51.10;;;;;;5018129;28;20444;-50
2023/06/20 07:27:07;;;;;;;9.87;4.37;;;29.50;50.10;;;;;;5026631;28;20200;-50
2023/06/20 07:29:32;;;;;;;18.53;5.93;;;29.60;50.30;;;;;;5029353;28;20189;-51
2023/06/20 07:31:58;;;;;;;6.17;4.70;;;29.70;49.60;;;;;;5027992;28;20386;-49
2023/06/20 07:34:23;;;;;;;4.63;4.13;;;29.80;48.50;;;;;;5029809;28;20197;-50
2023/06/20 07:36:49;;;;;;;11.17;6.07;;;29.40;49.50;;;;;;5029086;28;20946;-49
2023/06/20 07:39:15;;;;;;;17.63;8.80;;;29.60;49.50;;;;;;5019528;28;20232;-49
2023/06/20 07:41:40;;;;;;;4.97;4.57;;;29.80;49.20;;;;;;5018949;28;20246;-51
2023/06/20 07:44:08;;;;;;;35.63;10.83;;;29.90;48.10;;;;;;5029144;28;20205;-51
2023/06/20 07:46:33;;;;;;;4.60;4.20;;;30.10;48.70;;;;;;5019003;28;20197;-54
2023/06/20 07:48:59;;;;;;;76.30;17.97;;;30.10;47.60;;;;;;5022384;28;20974;-49
2023/06/20 07:51:25;;;;;;;50.30;10.40;;;30.00;48.10;;;;;;5017017;28;20241;-51
2023/06/20 07:53:50;;;;;;;34.20;10.20;;;30.30;48.20;;;;;;5018654;28;20205;-51
2023/06/20 07:56:16;;;;;;;36.07;10.27;;;30.70;47.50;;;;;;5020842;28;20653;-54
2023/06/20 07:58:44;;;;;;;31.93;10.70;;;31.00;47.20;;;;;;5015214;28;20216;-49
2023/06/20 08:01:12;;;;;;;18.93;7.67;;;31.10;46.30;;;;;;5023460;28;20223;-54
2023/06/20 08:03:38;;;;;;;11.67;5.80;;;31.20;45.30;;;;;;5022098;28;20819;-52
2023/06/20 08:06:03;;;;;;;16.87;6.70;;;31.10;45.50;;;;;;5024987;28;20471;-50
2023/06/20 08:08:29;;;;;;;60.33;16.07;;;31.10;46.00;;;;;;5023790;28;20204;-50
2023/06/20 08:10:54;;;;;;;51.43;12.57;;;31.20;45.20;;;;;;5022808;28;20233;-51
2023/06/20 08:13:20;;;;;;;86.93;16.87;;;31.20;44.50;;;;;;5016013;28;20344;-49
2023/06/20 08:15:45;;;;;;;13.40;6.03;;;31.30;44.70;;;;;;5018964;28;20197;-52
2023/06/20 08:18:11;;;;;;;7.17;4.50;;;31.50;45.10;;;;;;5019321;28;20201;-53
2023/06/20 08:20:36;;;;;;;14.47;6.57;;;31.60;44.20;;;;;;5027549;28;20201;-49
2023/06/20 08:23:02;;;;;;;11.83;6.10;;;31.40;43.80;;;;;;5024865;28;20193;-51
2023/06/20 08:25:27;;;;;;;7.33;5.90;;;31.40;44.40;;;;;;5028212;28;20197;-49
2023/06/20 08:27:53;;;;;;;5.40;4.93;;;31.20;44.70;;;;;;5021105;28;20205;-51
2023/06/20 08:30:19;;;;;;;5.43;4.90;;;31.40;45.30;;;;;;5027384;28;20411;-50
2023/06/20 08:32:45;;;;;;;12.37;6.93;;;31.70;44.90;;;;;;5027110;28;20223;-49
2023/06/20 08:35:10;;;;;;;18.80;8.20;;;31.90;44.30;;;;;;5017869;28;20196;-50
2023/06/20 08:37:37;;;;;;;10.63;7.50;;;32.00;43.90;;;;;;5022920;28;20255;-49
2023/06/20 08:40:08;;;;;;;20.93;9.10;;;32.20;43.40;;;;;;5022847;28;20577;-52
2023/06/20 08:42:33;;;;;;;49.73;12.73;;;32.20;43.60;;;;;;5021517;28;20443;-54
2023/06/20 08:44:59;;;;;;;11.50;6.00;;;32.30;43.80;;;;;;5015773;28;20459;-50
2023/06/20 08:47:25;;;;;;;10.50;5.60;;;32.40;43.00;;;;;;5017332;28;20197;-47
2023/06/20 08:49:50;;;;;;;7.67;5.80;;;32.50;42.40;;;;;;5011468;28;20619;-52
2023/06/20 08:52:25;;;;;;;6.93;5.20;;;32.70;42.80;;;;;;5012073;28;20596;-50
2023/06/20 08:54:51;;;;;;;5.63;5.00;;;32.90;42.50;;;;;;5029658;28;20255;-49
2023/06/20 08:57:18;;;;;;;5.97;5.03;;;33.00;42.40;;;;;;5025474;28;20502;-52
2023/06/20 08:59:44;;;;;;;97.47;23.30;;;33.20;42.30;;;;;;5017565;28;20479;-55
2023/06/20 09:02:11;;;;;;;12.47;7.30;;;33.20;41.90;;;;;;5023788;28;20890;-50
2023/06/20 09:04:36;;;;;;;9.80;5.70;;;33.40;42.20;;;;;;5016931;28;20893;-54
2023/06/20 09:07:13;;;;;;;23.80;9.00;;;33.70;41.00;;;;;;5016694;28;20452;-50
2023/06/20 09:09:39;;;;;;;35.10;11.90;;;33.80;41.10;;;;;;5019553;28;20212;-52
2023/06/20 09:12:07;;;;;;;16.80;6.97;;;34.00;40.60;;;;;;5023649;28;20545;-49
2023/06/20 09:14:32;;;;;;;13.27;6.80;;;34.10;40.20;;;;;;5023863;28;20444;-53
2023/06/20 09:17:00;;;;;;;44.33;10.03;;;34.20;38.50;;;;;;5030926;28;20449;-54
2023/06/20 09:19:25;;;;;;;7.93;5.40;;;34.50;38.40;;;;;;5026205;28;20240;-52
2023/06/20 09:21:51;;;;;;;17.60;7.67;;;34.40;38.80;;;;;;5021276;28;20467;-51
2023/06/20 09:24:20;;;;;;;6.17;5.57;;;34.70;39.30;;;;;;5027261;28;20197;-52
2023/06/20 09:26:47;;;;;;;9.47;6.50;;;34.50;39.40;;;;;;5017659;28;20193;-55
2023/06/20 09:29:17;;;;;;;22.87;10.93;;;34.20;37.80;;;;;;5017538;28;20530;-51
2023/06/20 09:31:49;;;;;;;8.80;6.00;;;34.40;38.30;;;;;;5022880;28;20491;-53
2023/06/20 09:34:18;;;;;;;5.60;5.20;;;34.50;37.60;;;;;;5025703;28;20462;-50
2023/06/20 09:36:44;;;;;;;6.43;5.20;;;34.80;37.20;;;;;;5025004;28;20439;-51
2023/06/20 09:39:17;;;;;;;7.30;6.07;;;35.10;36.80;;;;;;5025230;28;20443;-51
2023/06/20 09:41:47;;;;;;;7.00;6.00;;;35.10;36.70;;;;;;5021886;28;20477;-49
2023/06/20 09:44:16;;;;;;;7.07;6.20;;;35.30;35.80;;;;;;5019285;28;20452;-48
2023/06/20 09:46:42;;;;;;;6.03;5.40;;;35.30;35.90;;;;;;5030345;28;20455;-52
2023/06/20 09:49:11;;;;;;;6.07;5.53;;;35.50;35.60;;;;;;5031260;28;20450;-52
2023/06/20 09:51:54;;;;;;;6.93;5.77;;;35.70;35.50;;;;;;5020261;28;20864;-53
2023/06/20 09:54:48;;;;;;;6.03;5.40;;;35.70;35.20;;;;;;5026662;28;20473;-54
2023/06/20 09:57:20;;;;;;;8.13;5.90;;;35.90;35.10;;;;;;5021907;28;20474;-49
2023/06/20 09:59:49;;;;;;;9.30;5.80;;;36.00;34.40;;;;;;5018196;28;21019;-50
2023/06/20 10:02:17;;;;;;;6.10;5.60;;;36.00;34.20;;;;;;5026442;28;20954;-52
2023/06/20 10:04:43;;;;;;;15.23;7.00;;;36.00;33.90;;;;;;5019543;28;20443;-53
2023/06/20 10:07:14;;;;;;;6.27;5.17;;;36.20;33.40;;;;;;5012615;28;20436;-49
2023/06/20 10:09:44;;;;;;;6.53;5.80;;;36.30;33.40;;;;;;5020857;28;20447;-52
2023/06/20 10:12:11;;;;;;;6.30;5.70;;;36.40;33.00;;;;;;5018591;28;20483;-49
2023/06/20 10:14:38;;;;;;;6.67;6.00;;;36.20;32.60;;;;;;5027046;28;20539;-53
2023/06/20 10:17:07;;;;;;;5.87;5.27;;;36.30;33.00;;;;;;5030472;28;20471;-52
2023/06/20 10:19:50;;;;;;;7.97;6.27;;;36.50;33.60;;;;;;5012329;28;20433;-51
2023/06/20 10:22:41;;;;;;;6.70;5.50;;;36.70;32.90;;;;;;5014539;28;20483;-53
2023/06/20 10:25:14;;;;;;;6.80;5.60;;;36.80;31.90;;;;;;5026222;28;20446;-50
2023/06/20 10:27:53;;;;;;;7.43;6.00;;;36.90;32.10;;;;;;5026364;28;20593;-53
2023/06/20 10:30:51;;;;;;;6.10;5.50;;;37.10;31.40;;;;;;5020029;28;20443;-48
2023/06/20 10:33:33;;;;;;;7.93;5.20;;;36.90;30.40;;;;;;5030291;28;21312;-52
2023/06/20 10:36:02;;;;;;;5.83;5.23;;;36.60;31.70;;;;;;5017986;28;20904;-53
2023/06/20 10:38:30;;;;;;;6.43;5.60;;;36.80;31.40;;;;;;5026573;28;20448;-51
2023/06/20 10:41:20;;;;;;;5.40;4.90;;;37.10;31.20;;;;;;5021886;28;20452;-51
2023/06/20 10:43:57;;;;;;;6.47;5.87;;;37.40;29.90;;;;;;5020000;28;20542;-53
2023/06/20 10:46:41;;;;;;;6.50;5.37;;;37.20;29.70;;;;;;5029757;28;20463;-52
2023/06/20 10:49:08;;;;;;;6.50;5.73;;;37.40;29.80;;;;;;5019215;28;20458;-53
2023/06/20 10:51:46;;;;;;;6.20;5.23;;;37.60;29.80;;;;;;5020684;28;20492;-50
2023/06/20 10:54:13;;;;;;;5.70;5.10;;;37.50;29.30;;;;;;5031162;28;20454;-49
2023/06/20 10:56:39;;;;;;;5.03;4.57;;;37.50;28.70;;;;;;5028869;28;21103;-53
2023/06/20 10:59:12;;;;;;;5.73;5.33;;;37.80;28.90;;;;;;5024512;28;20435;-49
2023/06/20 11:01:38;;;;;;;6.10;5.60;;;37.70;29.00;;;;;;5022097;28;20211;-49
2023/06/20 11:04:08;;;;;;;13.60;7.27;;;37.90;28.90;;;;;;5030075;28;20470;-55
2023/06/20 11:06:33;;;;;;;6.93;5.50;;;38.10;28.80;;;;;;5026680;28;20730;-50
2023/06/20 11:08:59;;;;;;;5.87;5.23;;;38.20;28.60;;;;;;5022327;28;20448;-53
2023/06/20 11:11:54;;;;;;;7.63;5.63;;;38.40;29.20;;;;;;5025024;28;20334;-50
2023/06/20 11:14:21;;;;;;;7.23;5.40;;;38.60;28.00;;;;;;5004264;28;20235;-50
2023/06/20 11:16:48;;;;;;;17.73;9.57;;;38.50;27.10;;;;;;5024955;28;21014;-51
2023/06/20 11:19:14;;;;;;;6.70;5.80;;;38.40;27.60;;;;;;5016865;28;20502;-52
2023/06/20 11:21:43;;;;;;;16.47;7.10;;;38.40;27.70;;;;;;5026800;28;20443;-50
2023/06/20 11:24:09;;;;;;;6.73;6.23;;;38.20;28.10;;;;;;5025022;28;20682;-49
2023/06/20 11:26:35;;;;;;;6.70;5.93;;;38.20;28.00;;;;;;5018459;28;20440;-53
2023/06/20 11:29:04;;;;;;;6.60;5.93;;;38.30;28.20;;;;;;5026103;28;20204;-54
2023/06/20 11:31:33;;;;;;;6.20;5.70;;;37.90;28.50;;;;;;5023002;28;20232;-51
2023/06/20 11:34:06;;;;;;;6.43;5.93;;;37.70;29.00;;;;;;5020732;28;20439;-53
2023/06/20 11:36:32;;;;;;;8.10;5.70;;;38.00;29.40;;;;;;5028285;28;20530;-55
2023/06/20 11:38:59;;;;;;;5.90;5.30;;;38.30;28.90;;;;;;5020324;28;20447;-53
2023/06/20 11:41:31;;;;;;;11.50;6.83;;;38.50;28.80;;;;;;5027854;28;20552;-55
2023/06/20 11:43:58;;;;;;;13.20;7.20;;;38.70;27.90;;;;;;5019902;28;20464;-51
2023/06/20 11:46:24;;;;;;;9.07;7.13;;;38.80;27.60;;;;;;5011595;28;20531;-53
2023/06/20 11:48:51;;;;;;;7.43;6.40;;;38.90;27.70;;;;;;5018539;28;20974;-55
2023/06/20 11:51:20;;;;;;;7.93;7.13;;;39.10;26.60;;;;;;5026928;28;20887;-50
2023/06/20 11:53:46;;;;;;;7.10;6.10;;;39.20;25.40;;;;;;5027077;28;20454;-53
2023/06/20 11:56:14;;;;;;;6.60;6.00;;;39.00;26.00;;;;;;5024011;28;20534;-53
2023/06/20 11:58:45;;;;;;;7.67;6.73;;;39.10;25.60;;;;;;5023163;28;20480;-55
2023/06/20 12:01:14;;;;;;;9.87;6.10;;;38.90;25.70;;;;;;5030148;28;20443;-54
2023/06/20 12:03:41;;;;;;;7.20;5.83;;;38.70;26.30;;;;;;5029472;28;20444;-55
2023/06/20 12:06:29;;;;;;;6.03;5.60;;;38.70;26.00;;;;;;5028630;28;20505;-54
2023/06/20 12:09:00;;;;;;;6.17;5.50;;;38.80;25.30;;;;;;5018756;28;20814;-53
2023/06/20 12:11:27;;;;;;;6.20;5.60;;;39.00;25.50;;;;;;5022271;28;20486;-53
2023/06/20 12:13:52;;;;;;;17.57;9.33;;;39.30;25.80;;;;;;5014107;28;20475;-54
2023/06/20 12:16:19;;;;;;;10.90;6.20;;;39.50;25.60;;;;;;5028832;28;20438;-53
2023/06/20 12:18:48;;;;;;;8.07;6.30;;;39.40;25.10;;;;;;5019805;28;20661;-52
2023/06/20 12:21:14;;;;;;;6.87;6.20;;;39.10;25.30;;;;;;5025530;28;20516;-52
2023/06/20 12:23:40;;;;;;;6.27;5.73;;;38.60;25.90;;;;;;5030319;28;20511;-54
2023/06/20 12:26:07;;;;;;;7.67;5.90;;;38.60;26.60;;;;;;5023458;28;20224;-54
2023/06/20 12:28:32;;;;;;;9.33;6.27;;;38.60;26.50;;;;;;5027410;28;20196;-55
2023/06/20 12:30:59;;;;;;;7.73;7.10;;;38.70;26.50;;;;;;5027946;28;20493;-54
2023/06/20 12:33:25;;;;;;;7.83;6.47;;;38.60;26.30;;;;;;5029318;28;20208;-54
2023/06/20 12:35:51;;;;;;;6.30;5.70;;;38.80;26.70;;;;;;5024228;28;20444;-51
2023/06/20 12:38:17;;;;;;;8.00;6.90;;;38.70;26.40;;;;;;5024498;28;20435;-54
2023/06/20 12:40:42;;;;;;;7.97;6.33;;;38.80;26.50;;;;;;5023566;28;20278;-52
2023/06/20 12:43:08;;;;;;;8.73;6.73;;;38.90;26.40;;;;;;5018459;28;20225;-52
2023/06/20 12:45:33;;;;;;;8.73;6.40;;;38.90;26.90;;;;;;5021755;28;20197;-52
2023/06/20 12:47:59;;;;;;;6.93;6.33;;;39.20;26.60;;;;;;5024024;28;20196;-55